Time;durP1;ratioP1;P1;durP2;ratioP2;P2;SDS_P1;SDS_P2;PMS_P1;PMS_P2;Temp;Humidity;BMP_temperature;BMP_pressure;BME280_temperature;BME280_humidity;BME280_pressure;Samples;Min_cycle;Max_cycle;Signal;HPM_P1;HPM_P2
2022/03/23 00:00:22;;;;;;;97.18;43.58;;;;;;;4.02;43.69;100157.84;4951294;28;20038;-66
2022/03/23 00:02:48;;;;;;;97.90;46.00;;;;;;;4.01;43.81;100156.19;4953363;28;20113;-65
2022/03/23 00:05:13;;;;;;;87.50;42.55;;;;;;;3.96;43.43;100155.97;4953908;28;20380;-65
2022/03/23 00:07:38;;;;;;;90.72;44.17;;;;;;;3.93;44.02;100153.69;4953662;28;20030;-66
2022/03/23 00:10:04;;;;;;;97.10;43.75;;;;;;;3.93;43.90;100153.69;4953719;28;20023;-65
2022/03/23 00:12:30;;;;;;;93.63;44.47;;;;;;;3.86;44.37;100149.13;4953621;28;20377;-65
2022/03/23 00:14:55;;;;;;;93.78;42.53;;;;;;;3.86;44.50;100154.56;4952471;28;20031;-65
2022/03/23 00:17:21;;;;;;;92.10;43.17;;;;;;;3.95;44.08;100157.03;4949033;28;20042;-65
2022/03/23 00:19:47;;;;;;;92.40;42.88;;;;;;;4.02;43.98;100147.00;4955163;28;20490;-65
2022/03/23 00:22:13;;;;;;;90.97;41.45;;;;;;;4.10;44.20;100143.22;4953147;28;20039;-66
2022/03/23 00:24:38;;;;;;;93.40;41.85;;;;;;;4.17;44.63;100141.31;4952809;28;20027;-65
2022/03/23 00:27:03;;;;;;;97.70;43.75;;;;;;;4.23;43.95;100137.75;4952048;28;20031;-65
2022/03/23 00:29:29;;;;;;;92.72;42.13;;;;;;;4.29;43.86;100142.34;4952045;28;20480;-66
2022/03/23 00:31:54;;;;;;;88.75;40.42;;;;;;;4.33;44.13;100137.31;4952042;28;20019;-66
2022/03/23 00:34:20;;;;;;;88.47;41.35;;;;;;;4.37;43.98;100133.13;4952843;28;20031;-66
2022/03/23 00:36:45;;;;;;;90.10;41.40;;;;;;;4.40;43.94;100137.31;4953135;28;20029;-66
2022/03/23 00:39:11;;;;;;;91.50;42.42;;;;;;;4.42;43.97;100136.03;4953396;28;20038;-67
2022/03/23 00:41:36;;;;;;;110.82;46.70;;;;;;;4.43;44.14;100124.13;4953290;28;20106;-67
2022/03/23 00:44:01;;;;;;;94.40;44.47;;;;;;;4.45;44.13;100116.59;4967814;28;20031;-66
2022/03/23 00:46:27;;;;;;;107.00;47.75;;;;;;;4.41;44.39;100123.50;4951703;28;20237;-66
2022/03/23 00:48:53;;;;;;;102.72;47.50;;;;;;;4.34;44.25;100114.53;4953489;28;20053;-67
2022/03/23 00:51:18;;;;;;;103.45;48.90;;;;;;;4.23;43.88;100121.47;4953346;28;20038;-67
2022/03/23 00:53:44;;;;;;;102.80;47.38;;;;;;;4.12;43.64;100113.97;4951223;28;20020;-66
2022/03/23 00:56:11;;;;;;;101.03;49.45;;;;;;;4.04;43.76;100111.50;4951255;28;20034;-66
2022/03/23 00:58:36;;;;;;;105.65;48.92;;;;;;;3.93;44.32;100111.09;4950697;28;20019;-66
2022/03/23 01:01:02;;;;;;;108.00;51.38;;;;;;;3.84;44.04;100113.22;4951136;28;20020;-67
2022/03/23 01:03:27;;;;;;;110.63;53.00;;;;;;;3.77;44.16;100112.38;4950016;28;20038;-67
2022/03/23 01:05:53;;;;;;;110.10;48.88;;;;;;;3.67;44.64;100103.81;4950186;28;20547;-67
2022/03/23 01:08:18;;;;;;;108.70;49.95;;;;;;;3.60;44.60;100097.56;4949663;28;20699;-67
2022/03/23 01:10:44;;;;;;;106.47;48.95;;;;;;;3.53;44.87;100089.44;4949452;28;20019;-67
2022/03/23 01:13:10;;;;;;;97.30;47.15;;;;;;;3.45;44.83;100093.22;4949873;28;20030;-67
2022/03/23 01:15:35;;;;;;;113.07;50.60;;;;;;;3.35;44.56;100088.19;4948953;28;20027;-68
2022/03/23 01:18:01;;;;;;;108.60;49.08;;;;;;;3.26;44.87;100089.44;4952333;28;20074;-67
2022/03/23 01:20:26;;;;;;;112.82;52.17;;;;;;;3.22;44.87;100091.72;4952703;28;20030;-67
2022/03/23 01:22:52;;;;;;;114.97;52.72;;;;;;;3.21;45.11;100081.09;4952063;28;20376;-67
2022/03/23 01:25:18;;;;;;;112.68;52.88;;;;;;;3.23;45.14;100085.25;4951731;28;20066;-67
2022/03/23 01:27:44;;;;;;;140.35;61.05;;;;;;;3.23;45.08;100076.31;4952103;28;20123;-67
2022/03/23 01:30:12;;;;;;;134.02;61.95;;;;;;;3.27;46.13;100080.25;4949404;28;20505;-68
2022/03/23 01:32:38;;;;;;;129.52;57.97;;;;;;;3.30;45.57;100068.97;4950350;28;20019;-67
2022/03/23 01:35:05;;;;;;;130.82;59.70;;;;;;;3.30;46.34;100060.03;4957434;28;20030;-67
2022/03/23 01:37:31;;;;;;;139.57;62.35;;;;;;;3.33;46.15;100067.75;4969796;28;20479;-67
2022/03/23 01:39:59;;;;;;;138.05;63.75;;;;;;;3.33;46.04;100067.75;4954507;28;20059;-68
2022/03/23 01:42:27;;;;;;;131.13;61.25;;;;;;;3.33;45.75;100062.31;4953449;28;20035;-67
2022/03/23 01:44:52;;;;;;;130.73;57.67;;;;;;;3.28;46.07;100076.50;4954265;28;20027;-67
2022/03/23 01:47:18;;;;;;;130.50;56.63;;;;;;;3.20;46.47;100082.97;4953772;28;20408;-67
2022/03/23 01:49:49;;;;;;;130.32;58.55;;;;;;;3.06;46.42;100074.00;4954095;28;20126;-67
2022/03/23 01:52:16;;;;;;;124.45;58.22;;;;;;;2.87;46.79;100072.91;4966527;28;20041;-67
2022/03/23 01:54:43;;;;;;;123.68;56.47;;;;;;;2.76;46.75;100076.22;4953615;28;20027;-67
2022/03/23 01:57:10;;;;;;;128.55;57.95;;;;;;;2.71;47.20;100076.00;4951531;28;20063;-67
2022/03/23 01:59:37;;;;;;;125.28;55.63;;;;;;;2.68;46.71;100066.41;4952964;28;20030;-67
2022/03/23 02:02:04;;;;;;;130.10;58.58;;;;;;;2.59;47.15;100067.63;4955541;28;20042;-67
2022/03/23 02:04:29;;;;;;;125.80;56.08;;;;;;;2.53;47.28;100067.41;4953827;28;20028;-67
2022/03/23 02:06:55;;;;;;;147.73;65.78;;;;;;;2.48;47.48;100066.34;4954862;28;20487;-67
2022/03/23 02:09:20;;;;;;;127.78;55.25;;;;;;;2.45;47.96;100070.28;4955262;28;20027;-67
2022/03/23 02:11:47;;;;;;;131.18;58.17;;;;;;;2.31;47.44;100064.00;4954499;28;20015;-67
2022/03/23 02:14:13;;;;;;;123.80;52.95;;;;;;;2.18;48.08;100063.97;4953344;28;20029;-67
2022/03/23 02:16:43;;;;;;;123.40;55.58;;;;;;;2.03;47.75;100067.63;4952692;28;20502;-67
2022/03/23 02:19:10;;;;;;;129.15;57.03;;;;;;;1.87;48.11;100065.22;4955785;28;20483;-68
2022/03/23 02:21:35;;;;;;;127.03;57.10;;;;;;;1.76;48.26;100063.94;4953788;28;20023;-68
2022/03/23 02:24:03;;;;;;;122.82;54.95;;;;;;;1.69;48.86;100069.31;4952585;28;20034;-67
2022/03/23 02:26:29;;;;;;;124.18;54.50;;;;;;;1.63;48.60;100070.91;4967905;28;20023;-67
2022/03/23 02:28:55;;;;;;;123.68;55.38;;;;;;;1.57;48.84;100068.19;4952427;28;20463;-67
2022/03/23 02:31:21;;;;;;;126.40;54.83;;;;;;;1.52;48.61;100068.78;4953135;28;20090;-67
2022/03/23 02:33:46;;;;;;;121.07;52.20;;;;;;;1.47;49.38;100071.22;4952839;28;20126;-67
2022/03/23 02:36:11;;;;;;;124.28;55.35;;;;;;;1.43;48.96;100065.38;4951798;28;20102;-67
2022/03/23 02:38:37;;;;;;;118.53;51.50;;;;;;;1.40;49.16;100062.22;4952807;28;20039;-67
2022/03/23 02:41:03;;;;;;;116.78;49.50;;;;;;;1.33;49.42;100073.81;4951671;28;20167;-67
2022/03/23 02:43:29;;;;;;;96.85;46.13;;;;;;;1.28;49.15;100070.03;4951941;28;20031;-67
2022/03/23 02:45:54;;;;;;;109.30;48.00;;;;;;;1.17;49.53;100066.84;4953791;28;20059;-67
2022/03/23 02:48:20;;;;;;;108.88;49.50;;;;;;;1.12;49.68;100074.69;4968987;28;20031;-67
2022/03/23 02:50:45;;;;;;;109.32;48.67;;;;;;;1.09;49.39;100083.19;4954044;28;20086;-67
2022/03/23 03:01:54;;;;;;;108.60;48.28;;;;;;;0.98;50.28;100067.50;4951732;28;20042;-67
2022/03/23 03:04:21;;;;;;;109.13;47.67;;;;;;;0.98;50.28;100068.34;4952610;28;20531;-67
2022/03/23 03:06:48;;;;;;;114.72;51.53;;;;;;;1.00;50.54;100077.06;4966487;28;20030;-67
2022/03/23 03:09:15;;;;;;;119.65;53.17;;;;;;;0.98;50.59;100072.91;4952831;28;20019;-67
2022/03/23 03:11:43;;;;;;;117.70;54.50;;;;;;;0.95;50.88;100073.28;4951683;28;20534;-67
2022/03/23 03:14:08;;;;;;;131.32;57.53;;;;;;;0.91;51.25;100067.41;4952447;28;20027;-67
2022/03/23 03:16:34;;;;;;;134.30;56.88;;;;;;;0.98;51.17;100062.94;4951344;28;20483;-67
2022/03/23 03:18:59;;;;;;;130.98;56.67;;;;;;;0.99;51.24;100061.06;4952158;28;20082;-67
2022/03/23 03:21:25;;;;;;;134.70;59.17;;;;;;;0.99;51.29;100058.38;4951519;28;20394;-67
2022/03/23 03:23:50;;;;;;;134.63;59.67;;;;;;;0.98;51.24;100062.09;4968499;28;20035;-67
2022/03/23 03:26:17;;;;;;;128.25;57.55;;;;;;;0.96;51.37;100062.28;4968326;28;20031;-67
2022/03/23 03:28:43;;;;;;;136.38;60.85;;;;;;;0.94;51.23;100056.22;4954065;28;20050;-67
2022/03/23 03:31:11;;;;;;;124.47;57.45;;;;;;;0.88;51.13;100055.16;4965142;28;20065;-68
2022/03/23 03:33:37;;;;;;;132.35;59.47;;;;;;;0.84;51.27;100051.16;4952742;28;20023;-67
2022/03/23 03:36:04;;;;;;;139.57;63.15;;;;;;;0.82;51.79;100049.66;4949754;28;20476;-67
2022/03/23 03:38:30;;;;;;;152.68;67.30;;;;;;;0.76;51.70;100045.06;4953215;28;20114;-67
2022/03/23 03:40:56;;;;;;;157.55;72.03;;;;;;;0.78;51.82;100059.22;4952703;28;20111;-67
2022/03/23 03:43:24;;;;;;;133.90;59.75;;;;;;;0.73;51.28;100054.38;4952047;28;20035;-67
2022/03/23 03:45:49;;;;;;;132.88;62.78;;;;;;;0.67;52.26;100049.72;4952221;28;20514;-67
2022/03/23 03:48:15;;;;;;;132.15;60.05;;;;;;;0.61;51.50;100053.22;4952189;28;20114;-66
2022/03/23 03:50:41;;;;;;;135.82;61.40;;;;;;;0.58;51.82;100055.28;4952264;28;20451;-67
2022/03/23 03:53:10;;;;;;;141.45;61.03;;;;;;;0.56;51.78;100057.34;4951374;28;20107;-67
2022/03/23 03:55:36;;;;;;;136.27;61.33;;;;;;;0.51;51.91;100056.22;4950389;28;20050;-67
2022/03/23 03:58:03;;;;;;;132.77;61.70;;;;;;;0.41;52.04;100061.94;4953325;28;20106;-67
2022/03/23 04:00:30;;;;;;;146.45;64.00;;;;;;;0.37;52.01;100055.22;4952519;28;20034;-66
2022/03/23 04:02:55;;;;;;;139.63;64.45;;;;;;;0.35;52.45;100063.53;4952737;28;20169;-67
2022/03/23 04:05:20;;;;;;;140.52;64.03;;;;;;;0.30;52.39;100057.84;4942678;28;20141;-67
2022/03/23 04:07:46;;;;;;;133.48;60.42;;;;;;;0.25;52.28;100058.41;4952576;28;20030;-67
2022/03/23 04:10:11;;;;;;;142.02;62.30;;;;;;;0.20;52.27;100049.22;4951251;28;20098;-66
2022/03/23 04:12:38;;;;;;;127.82;57.78;;;;;;;0.15;52.58;100055.19;4952375;28;20034;-67
2022/03/23 04:15:04;;;;;;;137.77;61.28;;;;;;;0.13;52.76;100058.06;4951823;28;20023;-67
2022/03/23 04:17:30;;;;;;;142.27;63.20;;;;;;;0.13;52.37;100060.75;4951353;28;20361;-67
2022/03/23 04:19:55;;;;;;;141.07;61.65;;;;;;;0.09;52.80;100064.84;4951343;28;20030;-67
2022/03/23 04:22:21;;;;;;;137.85;61.92;;;;;;;0.03;52.87;100064.78;4951654;28;20459;-67
2022/03/23 04:24:47;;;;;;;132.18;59.67;;;;;;;-0.05;53.23;100063.84;4949007;28;20031;-66
2022/03/23 04:27:13;;;;;;;166.32;68.00;;;;;;;-0.05;53.54;100060.34;4950156;28;20080;-67
2022/03/23 04:29:40;;;;;;;136.23;59.83;;;;;;;-0.05;53.11;100066.53;4951514;28;20031;-67
2022/03/23 04:32:07;;;;;;;132.93;58.13;;;;;;;-0.09;53.25;100065.25;4964598;28;20395;-67
2022/03/23 04:34:33;;;;;;;132.90;60.20;;;;;;;-0.12;53.45;100067.50;4948809;28;20475;-67
2022/03/23 04:36:59;;;;;;;144.75;63.33;;;;;;;-0.18;53.28;100071.75;4949003;28;20034;-66
2022/03/23 04:39:25;;;;;;;138.45;61.88;;;;;;;-0.22;54.00;100070.47;4950579;28;20486;-67
2022/03/23 04:41:50;;;;;;;134.93;60.75;;;;;;;-0.25;53.96;100070.84;4951070;28;20027;-67
2022/03/23 04:44:17;;;;;;;142.07;64.75;;;;;;;-0.22;54.01;100073.16;4952667;28;20031;-67
2022/03/23 04:46:42;;;;;;;130.55;60.53;;;;;;;-0.13;54.17;100063.13;4951198;28;20058;-67
2022/03/23 04:49:08;;;;;;;143.75;65.68;;;;;;;-0.07;54.22;100063.19;4951484;28;20027;-67
2022/03/23 04:51:34;;;;;;;126.78;57.88;;;;;;;-0.05;54.13;100060.34;4954279;28;20015;-66
2022/03/23 04:54:00;;;;;;;137.73;59.10;;;;;;;-0.04;54.24;100059.31;4950675;28;20431;-67
2022/03/23 04:56:26;;;;;;;137.48;59.80;;;;;;;0.01;54.20;100066.81;4952439;28;20038;-66
2022/03/23 04:58:51;;;;;;;143.13;62.00;;;;;;;0.04;54.41;100069.16;4951480;28;20015;-67
2022/03/23 05:01:17;;;;;;;132.45;58.75;;;;;;;0.05;54.16;100063.56;4951352;28;20078;-67
2022/03/23 05:03:42;;;;;;;139.65;60.45;;;;;;;0.06;53.96;100059.84;4951505;28;20074;-67
2022/03/23 05:06:08;;;;;;;138.38;61.92;;;;;;;0.09;54.27;100064.03;4951199;28;20023;-67
2022/03/23 05:08:33;;;;;;;149.90;66.50;;;;;;;0.10;54.21;100063.00;4951151;28;20038;-67
2022/03/23 05:10:59;;;;;;;148.63;65.07;;;;;;;0.14;54.40;100064.31;4954531;28;20051;-67
2022/03/23 05:13:24;;;;;;;147.90;63.05;;;;;;;0.19;54.34;100064.59;4953783;28;20037;-67
2022/03/23 05:15:50;;;;;;;156.38;68.97;;;;;;;0.29;54.52;100057.00;4954662;28;20023;-67
2022/03/23 05:18:16;;;;;;;156.43;68.40;;;;;;;0.42;54.71;100050.09;4954969;28;20038;-67
2022/03/23 05:20:41;;;;;;;158.00;65.22;;;;;;;0.60;54.53;100055.06;4954538;28;20051;-67
2022/03/23 05:23:07;;;;;;;167.52;71.57;;;;;;;0.70;54.71;100055.59;4953670;28;20034;-67
2022/03/23 05:25:33;;;;;;;191.50;79.70;;;;;;;0.83;54.63;100049.50;4952881;28;20047;-67
2022/03/23 05:27:58;;;;;;;160.55;66.30;;;;;;;0.89;54.65;100058.69;4954391;28;20051;-67
2022/03/23 05:30:24;;;;;;;172.77;73.90;;;;;;;0.91;54.41;100053.91;4956287;28;20019;-67
2022/03/23 05:32:49;;;;;;;165.68;67.50;;;;;;;0.92;54.43;100057.47;4955548;28;20402;-67
2022/03/23 05:35:15;;;;;;;169.10;69.50;;;;;;;0.96;54.68;100045.25;4956026;28;20028;-68
2022/03/23 05:37:40;;;;;;;170.93;71.57;;;;;;;1.06;54.60;100051.13;4955281;28;20027;-66
2022/03/23 05:40:06;;;;;;;143.18;61.92;;;;;;;1.17;54.54;100042.50;4954389;28;20027;-67
2022/03/23 05:42:33;;;;;;;139.07;61.72;;;;;;;1.28;54.48;100054.66;4953209;28;20506;-67
2022/03/23 05:44:58;;;;;;;123.90;54.90;;;;;;;1.37;54.46;100047.25;4954318;28;20487;-67
2022/03/23 05:47:23;;;;;;;124.93;56.42;;;;;;;1.42;54.54;100047.50;4954346;28;20035;-67
2022/03/23 05:49:49;;;;;;;125.43;58.45;;;;;;;1.46;54.21;100035.22;4954223;28;20030;-67
2022/03/23 05:52:14;;;;;;;119.32;55.83;;;;;;;1.54;54.21;100036.13;4952478;28;20551;-67
2022/03/23 05:54:40;;;;;;;142.63;64.55;;;;;;;1.64;54.64;100045.53;4954226;28;20502;-67
2022/03/23 05:57:05;;;;;;;126.05;57.03;;;;;;;1.79;54.95;100044.59;4952989;28;20028;-67
2022/03/23 05:59:31;;;;;;;127.47;58.78;;;;;;;1.88;54.58;100046.13;4953557;28;20066;-66
2022/03/23 06:01:58;;;;;;;129.70;57.85;;;;;;;1.95;54.39;100046.13;4952779;28;20027;-67
2022/03/23 06:04:24;;;;;;;126.78;57.63;;;;;;;2.02;54.25;100047.00;4953675;28;20031;-67
2022/03/23 06:06:49;;;;;;;122.10;55.65;;;;;;;2.12;54.60;100054.75;4952872;28;20026;-67
2022/03/23 06:09:15;;;;;;;128.75;58.75;;;;;;;2.20;54.75;100051.06;4951987;28;20090;-67
2022/03/23 06:11:40;;;;;;;157.98;64.70;;;;;;;2.36;54.29;100061.53;4952778;28;20031;-67
2022/03/23 06:14:06;;;;;;;138.57;58.67;;;;;;;2.50;54.50;100051.56;4954262;28;20031;-67
2022/03/23 06:16:31;;;;;;;95.57;44.55;;;;;;;2.70;54.74;100058.06;4954700;28;20038;-67
2022/03/23 06:18:59;;;;;;;91.45;41.60;;;;;;;2.85;54.65;100056.03;4954973;28;20082;-67
2022/03/23 06:21:24;;;;;;;84.72;38.75;;;;;;;3.00;54.05;100052.31;4952986;28;20380;-67
2022/03/23 06:23:50;;;;;;;97.22;45.83;;;;;;;3.12;54.52;100051.47;4954256;28;20028;-67
2022/03/23 06:26:16;;;;;;;82.60;38.10;;;;;;;3.31;54.72;100053.56;4954246;28;20023;-67
2022/03/23 06:28:41;;;;;;;79.57;39.55;;;;;;;3.46;54.01;100046.06;4953555;28;20015;-67
2022/03/23 06:31:07;;;;;;;78.70;39.88;;;;;;;3.61;54.23;100050.41;4953970;28;20015;-67
2022/03/23 06:33:32;;;;;;;87.60;42.30;;;;;;;3.73;54.26;100052.25;4967792;28;20839;-66
2022/03/23 06:35:58;;;;;;;88.93;44.05;;;;;;;3.88;53.42;100064.75;4952404;28;20037;-67
2022/03/23 06:38:23;;;;;;;83.00;40.80;;;;;;;4.02;53.36;100057.41;4956293;28;20117;-67
2022/03/23 06:40:49;;;;;;;82.85;40.65;;;;;;;4.13;53.62;100061.31;4956075;28;20375;-67
2022/03/23 06:43:14;;;;;;;96.40;45.70;;;;;;;4.25;52.92;100050.66;4955960;28;20051;-67
2022/03/23 06:45:40;;;;;;;85.72;41.03;;;;;;;4.38;53.12;100058.72;4956259;28;20047;-67
2022/03/23 06:48:07;;;;;;;94.57;47.15;;;;;;;4.51;53.49;100048.84;4956081;28;20023;-67
2022/03/23 06:50:34;;;;;;;91.32;45.33;;;;;;;4.65;53.59;100046.88;4954795;28;20078;-67
2022/03/23 06:52:59;;;;;;;96.30;44.97;;;;;;;4.77;52.82;100045.16;4970750;28;20038;-67
2022/03/23 06:55:25;;;;;;;85.47;41.28;;;;;;;4.89;52.55;100048.81;4955860;28;20376;-67
2022/03/23 06:57:50;;;;;;;87.72;40.80;;;;;;;4.98;52.48;100052.13;4955838;28;20103;-65
2022/03/23 07:00:16;;;;;;;93.75;43.15;;;;;;;5.11;52.64;100053.91;4955733;28;20439;-66
2022/03/23 07:02:43;;;;;;;81.40;40.50;;;;;;;5.24;52.20;100052.97;4955573;28;20140;-65
2022/03/23 07:05:14;;;;;;;81.80;37.97;;;;;;;5.36;52.11;100048.47;4955881;28;20114;-65
2022/03/23 07:09:31;;;;;;;78.45;39.60;;;;;;;5.49;51.41;100052.97;4955726;28;20031;-65
2022/03/23 07:10:29;;;;;;;69.50;34.08;;;;;;;5.65;51.11;100053.47;4955498;28;20039;-66
2022/03/23 07:12:56;;;;;;;73.35;37.17;;;;;;;5.78;50.70;100049.75;4955511;28;20040;-65
2022/03/23 07:15:22;;;;;;;74.55;35.83;;;;;;;5.93;50.91;100052.94;4955648;28;20027;-64
2022/03/23 07:17:47;;;;;;;70.00;34.70;;;;;;;6.05;50.53;100055.78;4955445;28;20094;-64
2022/03/23 07:20:12;;;;;;;73.90;35.65;;;;;;;6.15;50.30;100057.13;4955528;28;20110;-64
2022/03/23 07:22:38;;;;;;;75.28;35.15;;;;;;;6.27;50.58;100057.22;4955242;28;20416;-65
2022/03/23 07:25:05;;;;;;;78.15;37.63;;;;;;;6.36;50.28;100056.69;4955352;28;20391;-65
2022/03/23 07:27:30;;;;;;;69.07;35.03;;;;;;;6.48;49.61;100051.28;4954927;28;20024;-66
2022/03/23 07:29:56;;;;;;;67.22;34.53;;;;;;;6.61;49.53;100054.91;4953075;28;20047;-66
2022/03/23 07:32:22;;;;;;;66.57;33.33;;;;;;;6.73;48.98;100053.03;4953730;28;20030;-67
2022/03/23 07:34:47;;;;;;;66.55;33.17;;;;;;;6.86;49.37;100046.56;4955282;28;20154;-66
2022/03/23 07:37:12;;;;;;;61.28;31.30;;;;;;;6.99;48.75;100048.25;4954572;28;20106;-65
2022/03/23 07:39:38;;;;;;;66.35;33.65;;;;;;;7.10;48.71;100046.63;4954713;28;20031;-65
2022/03/23 07:42:05;;;;;;;63.05;33.45;;;;;;;7.22;48.24;100046.63;4953656;28;20031;-65
2022/03/23 07:44:34;;;;;;;54.00;29.80;;;;;;;7.35;47.83;100051.03;4955004;28;20035;-65
2022/03/23 07:47:00;;;;;;;77.15;36.80;;;;;;;7.49;47.30;100033.38;4954328;28;20122;-65
2022/03/23 07:49:25;;;;;;;79.65;39.80;;;;;;;7.62;47.44;100045.13;4954672;28;20062;-66
2022/03/23 07:51:51;;;;;;;81.03;40.90;;;;;;;7.71;47.23;100041.81;4954561;28;20105;-65
2022/03/23 07:54:17;;;;;;;74.82;38.72;;;;;;;7.81;46.80;100035.72;4954937;28;20035;-65
2022/03/23 07:56:42;;;;;;;72.10;34.00;;;;;;;7.93;46.94;100033.00;4967873;28;20501;-66
2022/03/23 07:59:08;;;;;;;72.13;35.72;;;;;;;8.04;46.81;100031.31;4954142;28;20117;-65
2022/03/23 08:01:33;;;;;;;66.80;33.55;;;;;;;8.15;46.70;100030.44;4952132;28;20139;-66
2022/03/23 08:04:00;;;;;;;66.57;33.33;;;;;;;8.30;45.83;100020.91;4954602;28;20127;-66
2022/03/23 08:06:26;;;;;;;60.28;30.30;;;;;;;8.43;46.28;100028.84;4954228;28;20494;-66
2022/03/23 08:08:52;;;;;;;63.53;32.35;;;;;;;8.57;45.77;100028.56;4954528;28;20031;-66
2022/03/23 08:11:18;;;;;;;54.70;27.50;;;;;;;8.69;45.54;100025.78;4951922;28;20387;-66
2022/03/23 08:13:43;;;;;;;59.42;29.30;;;;;;;8.85;45.33;100022.25;4964901;28;20396;-66
2022/03/23 08:16:09;;;;;;;66.18;32.38;;;;;;;8.98;45.03;100018.34;4953260;28;20110;-66
2022/03/23 08:18:35;;;;;;;56.90;30.27;;;;;;;9.14;44.85;100027.69;4953961;28;20027;-67
2022/03/23 08:21:01;;;;;;;51.15;26.45;;;;;;;9.29;44.58;100027.09;4953180;28;20464;-66
2022/03/23 08:23:26;;;;;;;53.38;27.33;;;;;;;9.41;44.47;100021.53;4953159;28;20062;-66
2022/03/23 08:25:52;;;;;;;55.92;29.85;;;;;;;9.56;44.40;100020.94;4953626;28;20535;-67
2022/03/23 08:28:18;;;;;;;55.60;28.27;;;;;;;9.69;43.11;100022.50;4952181;28;20071;-66
2022/03/23 08:30:44;;;;;;;54.80;28.55;;;;;;;9.85;44.01;100015.31;4953235;28;20050;-67
2022/03/23 08:33:11;;;;;;;51.35;26.00;;;;;;;10.02;43.15;100014.44;4964497;28;20030;-65
2022/03/23 08:35:37;;;;;;;52.75;26.80;;;;;;;10.22;42.13;100013.88;4953819;28;20023;-66
2022/03/23 08:38:04;;;;;;;51.15;26.77;;;;;;;10.35;42.50;100010.75;4951569;28;20023;-66
2022/03/23 08:40:29;;;;;;;55.03;26.75;;;;;;;10.48;42.93;100014.19;4961232;28;20043;-64
2022/03/23 08:42:55;;;;;;;46.63;25.60;;;;;;;10.58;41.69;100006.06;4946461;28;20023;-68
2022/03/23 08:45:21;;;;;;;49.90;25.98;;;;;;;10.70;41.69;100006.75;4955570;28;20055;-65
2022/03/23 08:47:49;;;;;;;38.53;21.15;;;;;;;10.84;41.43;100007.16;4952186;28;20242;-65
2022/03/23 08:50:15;;;;;;;49.33;26.00;;;;;;;10.98;41.47;100004.81;4953884;28;20091;-74
2022/03/23 08:52:41;;;;;;;40.58;21.98;;;;;;;11.19;41.72;100007.75;4954690;28;20114;-65
2022/03/23 08:55:09;;;;;;;43.90;23.52;;;;;;;11.40;40.94;100006.00;4956222;28;20027;-65
2022/03/23 08:57:36;;;;;;;44.17;23.02;;;;;;;11.54;40.84;100006.34;4956637;28;20444;-64
2022/03/23 09:00:06;;;;;;;47.55;25.20;;;;;;;11.70;40.32;99996.28;4955140;28;21419;-71
2022/03/23 09:02:32;;;;;;;43.38;23.40;;;;;;;11.83;39.46;100000.47;4954283;28;20150;-65
2022/03/23 09:04:57;;;;;;;43.67;22.92;;;;;;;12.00;38.98;100003.06;4956385;28;20035;-65
2022/03/23 09:07:22;;;;;;;43.15;23.08;;;;;;;12.12;38.79;100000.09;4954293;28;20031;-65
2022/03/23 09:09:48;;;;;;;41.60;23.05;;;;;;;12.28;38.18;99986.41;4952808;28;20046;-64
2022/03/23 09:12:13;;;;;;;41.97;21.40;;;;;;;12.42;38.54;99993.06;4953784;28;20039;-66
2022/03/23 09:14:39;;;;;;;45.72;23.83;;;;;;;12.59;37.58;99987.31;4971214;28;20439;-65
2022/03/23 09:17:05;;;;;;;40.65;22.25;;;;;;;12.73;38.09;99986.78;4955087;28;20031;-65
2022/03/23 09:19:31;;;;;;;39.80;20.67;;;;;;;12.97;36.33;99975.25;4946486;28;20078;-65
2022/03/23 09:21:59;;;;;;;39.45;20.73;;;;;;;13.15;35.76;99977.44;4954020;28;20050;-65
2022/03/23 09:24:27;;;;;;;38.38;20.33;;;;;;;13.32;35.82;99979.91;4949293;28;20029;-65
2022/03/23 09:26:55;;;;;;;36.53;18.90;;;;;;;13.51;34.34;99973.84;4951004;28;20086;-65
2022/03/23 09:29:21;;;;;;;46.30;22.73;;;;;;;13.78;35.08;99967.16;4953811;28;20035;-65
2022/03/23 09:31:47;;;;;;;43.63;21.23;;;;;;;13.90;34.56;99966.84;4951309;28;20030;-65
2022/03/23 09:34:12;;;;;;;40.50;20.35;;;;;;;13.98;35.02;99961.59;4953095;28;20027;-66
2022/03/23 09:39:22;;;;;;;38.20;19.65;;;;;;;14.33;34.16;99949.81;4953800;28;20042;-66
2022/03/23 09:41:49;;;;;;;38.97;20.25;;;;;;;14.50;33.02;99954.97;4951720;28;20027;-66
2022/03/23 09:44:15;;;;;;;40.47;19.33;;;;;;;14.63;32.28;99954.34;4955349;28;20041;-65
2022/03/23 09:46:42;;;;;;;28.67;16.27;;;;;;;14.71;31.84;99945.44;4952445;28;20046;-65
2022/03/23 09:49:08;;;;;;;34.85;16.90;;;;;;;14.88;31.07;99941.47;4966795;28;20030;-66
2022/03/23 09:51:35;;;;;;;33.28;17.58;;;;;;;14.99;31.06;99947.72;4975157;28;20019;-65
2022/03/23 09:54:03;;;;;;;37.53;16.98;;;;;;;15.06;31.60;99939.13;4976411;28;20050;-65
2022/03/23 09:56:28;;;;;;;35.63;17.33;;;;;;;15.22;30.33;99942.56;4975616;28;20035;-65
2022/03/23 09:58:54;;;;;;;28.13;15.98;;;;;;;15.36;29.13;99937.97;4963799;28;20039;-66
2022/03/23 10:01:46;;;;;;;35.40;17.48;;;;;;;15.45;29.88;99938.19;4955756;28;20057;-65
2022/03/23 10:04:20;;;;;;;32.90;18.83;;;;;;;15.57;30.29;99935.81;4936907;28;20051;-65
2022/03/23 10:07:23;;;;;;;28.73;14.45;;;;;;;15.81;29.05;99932.25;4948779;28;20468;-66
2022/03/23 10:10:09;;;;;;;20.95;11.77;;;;;;;16.01;25.71;99927.59;4954049;28;20407;-65
2022/03/23 10:13:12;;;;;;;21.90;12.80;;;;;;;16.18;26.16;99927.09;4957149;28;20543;-65
2022/03/23 10:16:11;;;;;;;21.55;12.32;;;;;;;16.29;24.35;99909.22;4966232;28;20475;-64
2022/03/23 10:18:51;;;;;;;22.77;12.70;;;;;;;16.40;24.54;99909.09;4949163;28;20035;-66
2022/03/23 10:21:18;;;;;;;15.77;9.30;;;;;;;16.48;25.08;99914.75;4959958;28;20035;-66
2022/03/23 10:24:14;;;;;;;19.73;10.48;;;;;;;16.60;24.54;99911.53;4954956;28;20023;-66
2022/03/23 10:26:42;;;;;;;23.00;11.80;;;;;;;16.70;24.01;99901.41;4953634;28;20039;-67
2022/03/23 10:29:23;;;;;;;22.77;12.30;;;;;;;16.73;23.90;99907.16;4953267;28;20547;-65
2022/03/23 10:32:08;;;;;;;17.25;10.02;;;;;;;16.85;22.60;99901.19;4953786;28;20035;-64
2022/03/23 10:34:54;;;;;;;15.30;8.73;;;;;;;17.00;22.87;99896.50;4952625;28;20031;-64
2022/03/23 10:37:25;;;;;;;10.73;7.55;;;;;;;17.13;20.19;99892.94;4954903;28;20050;-64
2022/03/23 10:39:52;;;;;;;9.02;6.25;;;;;;;17.21;18.95;99891.41;4952918;28;20042;-64
2022/03/23 10:42:20;;;;;;;11.40;5.80;;;;;;;17.26;19.71;99889.41;4951906;28;20031;-65
2022/03/23 10:44:46;;;;;;;9.90;5.75;;;;;;;17.30;18.53;99888.78;4950373;28;20086;-65
2022/03/23 10:47:26;;;;;;;11.57;6.97;;;;;;;17.38;18.50;99877.78;4953262;28;20047;-64
2022/03/23 10:49:51;;;;;;;11.82;6.70;;;;;;;17.44;18.74;99886.00;4954359;28;20031;-65
2022/03/23 10:52:18;;;;;;;10.90;7.03;;;;;;;17.48;18.98;99870.41;4954685;28;20024;-65
2022/03/23 10:54:58;;;;;;;9.93;7.00;;;;;;;17.46;19.20;99862.38;4955679;28;20480;-65
2022/03/23 10:57:55;;;;;;;11.73;6.72;;;;;;;17.61;19.69;99868.75;4953767;28;20031;-65
2022/03/23 11:00:38;;;;;;;12.43;7.60;;;;;;;17.71;19.43;99866.59;4955000;28;20472;-66
2022/03/23 11:03:07;;;;;;;11.13;6.70;;;;;;;17.80;18.53;99855.56;4941383;28;20027;-66
2022/03/23 11:05:40;;;;;;;11.80;7.53;;;;;;;17.87;19.60;99857.94;4945138;28;20041;-65
2022/03/23 11:08:09;;;;;;;13.32;7.60;;;;;;;17.99;19.11;99854.66;4948329;28;20271;-65
2022/03/23 11:16:32;;;;;;;8.95;6.20;;;;;;;18.17;17.98;99849.25;4938890;28;20027;-65
2022/03/23 11:19:12;;;;;;;10.20;5.60;;;;;;;18.19;18.20;99839.47;4947398;28;20098;-65
2022/03/23 11:22:02;;;;;;;12.93;6.25;;;;;;;18.24;18.78;99835.75;4952664;28;20027;-65
2022/03/23 11:24:32;;;;;;;12.55;6.25;;;;;;;18.27;17.95;99833.19;4954441;28;20110;-65
2022/03/23 11:26:58;;;;;;;7.82;5.50;;;;;;;18.36;17.93;99835.19;4955111;28;20051;-66
2022/03/23 11:29:24;;;;;;;10.88;5.80;;;;;;;18.37;17.48;99834.88;4953161;28;20093;-65
2022/03/23 11:31:52;;;;;;;10.10;6.60;;;;;;;18.42;17.53;99817.28;4953151;28;20451;-65